createdAt,value
2023-03-22T00:02:02.596Z,6.95
2023-03-22T00:04:30.857Z,7.80
2023-03-22T00:06:57.203Z,8.55
2023-03-22T00:09:23.507Z,8.20
2023-03-22T00:11:50.970Z,6.75
2023-03-22T00:14:18.803Z,8.18
2023-03-22T00:16:46.450Z,7.47
2023-03-22T00:19:13.272Z,7.82
2023-03-22T00:21:39.628Z,8.65
2023-03-22T00:24:06.476Z,8.10
2023-03-22T00:26:32.885Z,7.10
2023-03-22T00:28:59.220Z,7.82
2023-03-22T00:31:25.549Z,7.97
2023-03-22T00:33:51.888Z,8.02
2023-03-22T00:36:18.477Z,7.53
2023-03-22T00:38:45.304Z,8.13
2023-03-22T00:41:13.839Z,8.20
2023-03-22T00:43:40.926Z,8.68
2023-03-22T00:46:08.617Z,8.90
2023-03-22T00:48:35.140Z,8.18
2023-03-22T00:51:02.065Z,8.40
2023-03-22T00:53:32.805Z,8.65
2023-03-22T00:55:59.590Z,8.25
2023-03-22T00:58:25.974Z,7.82
2023-03-22T01:00:52.445Z,7.82
2023-03-22T01:03:19.061Z,8.38
2023-03-22T01:05:46.135Z,8.95
2023-03-22T01:08:12.882Z,8.50
2023-03-22T01:10:40.865Z,8.25
2023-03-22T01:13:08.284Z,7.63
2023-03-22T01:15:34.854Z,8.32
2023-03-22T01:18:01.601Z,6.88
2023-03-22T01:20:28.294Z,7.38
2023-03-22T01:22:54.881Z,8.15
2023-03-22T01:25:21.406Z,7.25
2023-03-22T01:27:47.875Z,8.10
2023-03-22T01:30:14.645Z,7.85
2023-03-22T01:32:41.213Z,7.75
2023-03-22T01:35:08.196Z,8.68
2023-03-22T01:37:36.655Z,8.23
2023-03-22T01:40:04.212Z,8.57
2023-03-22T01:42:32.683Z,7.32
2023-03-22T01:45:14.746Z,8.15
2023-03-22T01:47:59.035Z,8.02
2023-03-22T01:50:25.898Z,7.90
2023-03-22T01:52:53.493Z,7.40
2023-03-22T01:55:22.661Z,8.30
2023-03-22T01:57:50.764Z,8.07
2023-03-22T02:00:19.072Z,8.52
2023-03-22T02:02:49.160Z,7.82
2023-03-22T02:05:16.673Z,8.20
2023-03-22T02:07:44.014Z,6.57
2023-03-22T02:10:23.259Z,8.07
2023-03-22T02:13:20.621Z,7.25
2023-03-22T02:16:12.405Z,8.65
2023-03-22T02:18:52.422Z,7.10
2023-03-22T02:21:21.719Z,8.02
2023-03-22T02:24:17.590Z,8.43
2023-03-22T02:27:00.175Z,8.10
2023-03-22T02:29:41.896Z,6.72
2023-03-22T02:32:30.284Z,7.50
2023-03-22T02:35:29.440Z,7.75
2023-03-22T02:38:28.876Z,7.63
2023-03-22T02:41:14.347Z,7.85
2023-03-22T02:43:52.772Z,8.20
2023-03-22T02:46:26.028Z,6.72
2023-03-22T02:49:18.606Z,8.13
2023-03-22T02:52:02.504Z,7.97
2023-03-22T02:54:37.972Z,7.55
2023-03-22T02:57:19.922Z,8.68
2023-03-22T02:59:48.533Z,7.40
2023-03-22T03:02:19.560Z,7.85
2023-03-22T03:04:49.589Z,6.80
2023-03-22T03:07:20.459Z,8.55
2023-03-22T03:09:47.942Z,7.93
2023-03-22T03:12:20.325Z,6.75
2023-03-22T03:14:47.077Z,7.22
2023-03-22T03:17:35.381Z,7.15
2023-03-22T03:20:24.241Z,7.88
2023-03-22T03:23:13.828Z,8.35
2023-03-22T03:26:26.381Z,7.47
2023-03-22T03:29:05.549Z,7.53
2023-03-22T03:31:37.401Z,7.35
2023-03-22T03:34:19.342Z,7.82
2023-03-22T03:37:09.454Z,7.90
2023-03-22T03:39:44.106Z,7.97
2023-03-22T03:42:15.189Z,7.88
2023-03-22T03:44:42.946Z,7.90
2023-03-22T03:47:10.834Z,7.95
2023-03-22T03:49:37.498Z,8.63
2023-03-22T03:52:05.433Z,8.90
2023-03-22T03:54:31.978Z,8.23
2023-03-22T03:56:58.566Z,8.32
2023-03-22T03:59:25.210Z,8.52
2023-03-22T04:01:52.606Z,7.85
2023-03-22T04:04:26.344Z,9.13
2023-03-22T04:06:58.252Z,9.52
2023-03-22T04:09:27.214Z,7.93
2023-03-22T04:11:54.579Z,7.78
2023-03-22T04:14:24.466Z,8.00
2023-03-22T04:16:51.212Z,8.88
2023-03-22T04:19:18.494Z,8.50
2023-03-22T04:21:45.813Z,8.55
2023-03-22T04:24:13.109Z,8.40
2023-03-22T04:26:39.842Z,8.55
2023-03-22T04:29:06.759Z,9.18
2023-03-22T04:31:35.619Z,8.95
2023-03-22T04:34:05.631Z,8.88
2023-03-22T04:36:36.174Z,9.30
2023-03-22T04:39:05.692Z,8.45
2023-03-22T04:41:33.130Z,9.05
2023-03-22T04:44:09.011Z,8.65
2023-03-22T04:49:03.311Z,8.82
2023-03-22T04:51:31.944Z,8.88
2023-03-22T04:53:58.827Z,7.55
2023-03-22T04:56:26.506Z,9.25
2023-03-22T04:58:52.886Z,9.40
2023-03-22T05:01:19.358Z,9.77
2023-03-22T05:03:47.221Z,9.57
2023-03-22T05:06:14.270Z,8.98
2023-03-22T05:08:40.873Z,8.20
2023-03-22T05:11:13.357Z,9.00
2023-03-22T05:13:40.624Z,8.40
2023-03-22T05:16:08.089Z,9.13
2023-03-22T05:18:38.140Z,10.07
2023-03-22T05:21:16.425Z,9.32
2023-03-22T05:23:44.360Z,9.27
2023-03-22T05:26:16.212Z,8.73
2023-03-22T05:28:44.002Z,9.45
2023-03-22T05:31:11.687Z,9.32
2023-03-22T05:33:38.185Z,8.73
2023-03-22T05:36:04.865Z,9.48
2023-03-22T05:38:31.602Z,9.40
2023-03-22T05:40:57.998Z,9.52
2023-03-22T05:43:24.480Z,8.20
2023-03-22T05:45:51.066Z,10.35
2023-03-22T05:48:20.782Z,9.48
2023-03-22T05:50:49.514Z,9.82
2023-03-22T05:53:16.044Z,9.82
2023-03-22T05:55:42.780Z,8.98
2023-03-22T05:58:10.771Z,8.75
2023-03-22T06:00:37.303Z,9.13
2023-03-22T06:03:04.355Z,8.93
2023-03-22T06:05:32.329Z,9.82
2023-03-22T06:07:59.541Z,8.65
2023-03-22T06:10:26.906Z,9.52
2023-03-22T06:12:53.887Z,8.75
2023-03-22T06:15:20.511Z,8.10
2023-03-22T06:17:47.095Z,8.40
2023-03-22T06:20:14.481Z,8.30
2023-03-22T06:22:41.210Z,8.25
2023-03-22T06:25:09.082Z,8.20
2023-03-22T06:27:36.043Z,7.88
2023-03-22T06:30:03.294Z,8.40
2023-03-22T06:32:29.740Z,8.25
2023-03-22T06:34:56.341Z,7.35
2023-03-22T06:37:23.208Z,7.03
2023-03-22T06:39:51.174Z,8.25
2023-03-22T06:42:17.835Z,7.55
2023-03-22T06:44:44.654Z,7.72
2023-03-22T06:47:12.083Z,7.65
2023-03-22T06:49:39.169Z,7.22
2023-03-22T06:52:05.955Z,7.38
2023-03-22T06:54:32.472Z,7.35
2023-03-22T06:57:01.323Z,6.28
2023-03-22T06:59:28.038Z,7.82
2023-03-22T07:01:54.637Z,7.80
2023-03-22T07:04:21.337Z,6.10
2023-03-22T07:06:50.624Z,7.07
2023-03-22T07:09:17.610Z,7.07
2023-03-22T07:11:44.910Z,6.53
2023-03-22T07:14:11.691Z,6.88
2023-03-22T07:16:38.015Z,7.30
2023-03-22T07:19:04.383Z,6.97
2023-03-22T07:21:30.770Z,7.15
2023-03-22T07:23:58.073Z,6.55
2023-03-22T07:26:26.078Z,6.57
2023-03-22T07:28:53.498Z,6.70
2023-03-22T07:31:20.009Z,6.18
2023-03-22T07:33:46.410Z,5.60
2023-03-22T07:36:12.892Z,5.40
2023-03-22T07:38:41.072Z,5.22
2023-03-22T07:41:07.849Z,5.07
2023-03-22T07:43:47.327Z,5.13
2023-03-22T07:46:19.568Z,4.90
2023-03-22T07:48:46.133Z,5.57
2023-03-22T07:51:12.619Z,4.82
2023-03-22T07:53:39.313Z,4.45
2023-03-22T07:56:06.219Z,4.57
2023-03-22T07:58:32.690Z,3.90
2023-03-22T08:01:04.315Z,4.57
2023-03-22T08:03:30.776Z,4.22
2023-03-22T08:06:03.211Z,4.22
2023-03-22T08:08:29.695Z,4.55
2023-03-22T08:10:56.038Z,4.93
2023-03-22T08:13:26.032Z,4.25
2023-03-22T08:15:56.149Z,4.15
2023-03-22T08:18:23.046Z,3.90
2023-03-22T08:20:58.005Z,3.78
2023-03-22T08:23:38.523Z,3.53
2023-03-22T08:26:08.768Z,3.67
2023-03-22T08:28:35.494Z,3.40
2023-03-22T08:31:02.130Z,4.32
2023-03-22T08:33:28.659Z,3.58
2023-03-22T08:36:06.533Z,4.07
2023-03-22T08:38:33.951Z,3.63
2023-03-22T08:41:00.438Z,3.65
2023-03-22T08:43:26.970Z,3.80
2023-03-22T08:45:53.445Z,2.95
2023-03-22T08:48:20.050Z,3.10
2023-03-22T08:50:46.426Z,2.55
2023-03-22T08:53:13.859Z,2.85
2023-03-22T08:55:44.820Z,2.63
2023-03-22T08:58:16.545Z,2.40
2023-03-22T09:00:48.914Z,2.28
2023-03-22T09:03:16.597Z,2.40
2023-03-22T09:05:43.072Z,2.50
2023-03-22T09:08:18.196Z,3.05
2023-03-22T09:10:51.193Z,2.20
2023-03-22T09:13:18.100Z,3.15
2023-03-22T09:15:46.480Z,2.80
2023-03-22T09:18:13.662Z,2.90
2023-03-22T09:20:40.647Z,2.55
2023-03-22T09:23:07.256Z,2.45
2023-03-22T09:25:33.901Z,2.70
2023-03-22T09:28:00.255Z,1.90
2023-03-22T09:30:27.202Z,2.70
2023-03-22T09:32:54.176Z,1.65
2023-03-22T09:35:20.757Z,1.50
2023-03-22T09:37:47.436Z,1.90
2023-03-22T09:40:13.989Z,1.60
2023-03-22T09:42:47.925Z,1.77
2023-03-22T09:45:22.877Z,2.33
2023-03-22T09:47:54.884Z,1.73
2023-03-22T09:50:28.218Z,1.70
2023-03-22T09:52:54.842Z,1.65
2023-03-22T09:55:29.208Z,1.58
2023-03-22T09:58:29.724Z,1.80
2023-03-22T10:01:02.687Z,1.50
2023-03-22T10:04:05.240Z,2.40
2023-03-22T10:06:32.369Z,1.83
2023-03-22T10:09:03.814Z,1.92
2023-03-22T10:11:45.802Z,1.20
2023-03-22T10:14:37.211Z,1.58
2023-03-22T10:17:10.399Z,2.17
2023-03-22T10:20:19.962Z,1.30
2023-03-22T10:22:47.598Z,3.20
2023-03-22T10:25:18.889Z,2.65
2023-03-22T10:27:50.585Z,3.40
2023-03-22T10:30:24.088Z,6.05
2023-03-22T10:33:01.053Z,1.55
2023-03-22T10:35:34.249Z,2.30
2023-03-22T10:38:04.787Z,3.88
2023-03-22T10:40:35.315Z,3.95
2023-03-22T10:43:35.101Z,1.42
2023-03-22T10:46:04.926Z,1.50
2023-03-22T10:48:44.776Z,1.75
2023-03-22T10:51:32.336Z,1.73
2023-03-22T10:54:03.335Z,1.35
2023-03-22T10:56:29.949Z,1.73
2023-03-22T10:58:59.327Z,1.75
2023-03-22T11:01:33.135Z,1.60
2023-03-22T11:04:20.776Z,1.90
2023-03-22T11:06:56.072Z,2.10
2023-03-22T11:09:32.113Z,1.65
2023-03-22T11:12:05.755Z,2.03
2023-03-22T11:14:44.070Z,1.83
2023-03-22T11:17:16.812Z,1.38
2023-03-22T11:19:58.041Z,2.05
2023-03-22T11:23:00.098Z,1.50
2023-03-22T11:25:32.370Z,1.67
2023-03-22T11:28:04.858Z,1.73
2023-03-22T11:30:33.737Z,1.65
2023-03-22T11:33:20.918Z,1.67
2023-03-22T11:35:53.817Z,1.60
2023-03-22T11:38:37.379Z,1.63
2023-03-22T11:41:08.329Z,1.90
2023-03-22T11:43:44.018Z,1.33
2023-03-22T11:46:12.124Z,2.30
2023-03-22T11:48:41.167Z,1.20
2023-03-22T11:53:42.661Z,1.27
2023-03-22T11:56:11.381Z,1.85
2023-03-22T11:59:01.129Z,1.40
2023-03-22T12:01:35.511Z,1.33
2023-03-22T12:04:07.949Z,1.70
2023-03-22T12:06:39.747Z,1.40
2023-03-22T12:09:36.694Z,2.00
2023-03-22T12:12:06.579Z,2.28
2023-03-22T12:14:35.384Z,1.50
2023-03-22T12:17:25.625Z,1.40
2023-03-22T12:20:03.851Z,1.40
2023-03-22T12:22:42.059Z,2.03
2023-03-22T12:25:15.898Z,1.30
2023-03-22T12:27:52.441Z,1.40
2023-03-22T12:32:58.318Z,1.40
2023-03-22T12:35:29.149Z,1.77
2023-03-22T12:37:58.191Z,1.52
2023-03-22T12:40:28.361Z,1.30
2023-03-22T12:43:02.211Z,1.40
2023-03-22T12:45:33.442Z,1.20
2023-03-22T12:48:20.817Z,2.35
2023-03-22T12:50:53.355Z,1.63
2023-03-22T12:53:22.143Z,1.98
2023-03-22T12:55:49.767Z,2.25
2023-03-22T12:58:22.137Z,8.18
2023-03-22T13:00:57.190Z,1.10
2023-03-22T13:03:28.824Z,1.10
2023-03-22T13:06:28.255Z,1.17
2023-03-22T13:09:16.136Z,1.73
2023-03-22T13:11:46.177Z,1.10
2023-03-22T13:14:50.835Z,1.23
2023-03-22T13:17:23.033Z,1.20
2023-03-22T13:19:55.127Z,1.27
2023-03-22T13:22:26.965Z,1.00
2023-03-22T13:25:19.006Z,1.40
2023-03-22T13:27:57.582Z,1.65
2023-03-22T13:30:24.126Z,1.90
2023-03-22T13:32:57.560Z,1.70
2023-03-22T13:35:45.827Z,1.10
2023-03-22T13:38:24.652Z,1.10
2023-03-22T13:40:56.730Z,2.10
2023-03-22T13:43:52.024Z,1.77
2023-03-22T13:46:22.739Z,2.38
2023-03-22T13:49:17.148Z,1.52
2023-03-22T13:51:44.608Z,1.35
2023-03-22T13:54:18.720Z,1.17
2023-03-22T13:56:54.118Z,1.30
2023-03-22T14:01:52.725Z,1.40
2023-03-22T14:04:45.392Z,1.30
2023-03-22T14:07:23.535Z,1.15
2023-03-22T14:09:54.126Z,1.95
2023-03-22T14:12:42.229Z,1.50
2023-03-22T14:15:13.425Z,1.20
2023-03-22T14:17:55.357Z,1.92
2023-03-22T14:20:24.671Z,3.05
